createdAt,value
2023-02-07T00:00:46.014Z,0.00
2023-02-07T00:01:46.028Z,0.00
2023-02-07T00:02:45.927Z,0.00
2023-02-07T00:03:45.872Z,0.00
2023-02-07T00:04:45.828Z,0.00
2023-02-07T00:05:45.772Z,0.00
2023-02-07T00:06:45.734Z,0.00
2023-02-07T00:07:45.689Z,0.00
2023-02-07T00:08:45.645Z,0.00
2023-02-07T00:09:45.602Z,0.00
2023-02-07T00:10:45.541Z,0.00
2023-02-07T00:11:45.504Z,0.00
2023-02-07T00:12:45.457Z,0.00
2023-02-07T00:13:45.395Z,0.00
2023-02-07T00:14:45.374Z,0.00
2023-02-07T00:15:45.316Z,0.00
2023-02-07T00:16:45.280Z,0.00
2023-02-07T00:17:45.204Z,0.00
2023-02-07T00:18:45.164Z,0.00
2023-02-07T00:19:45.108Z,0.00
2023-02-07T00:20:45.079Z,0.00
2023-02-07T00:21:45.022Z,0.00
2023-02-07T00:22:44.970Z,0.00
2023-02-07T00:23:44.916Z,0.00
2023-02-07T00:24:44.875Z,0.00
2023-02-07T00:25:44.822Z,0.00
2023-02-07T00:26:44.791Z,0.00
2023-02-07T00:27:44.897Z,0.00
2023-02-07T00:28:44.721Z,0.00
2023-02-07T00:29:44.633Z,0.00
2023-02-07T00:30:44.683Z,0.00
2023-02-07T00:31:44.591Z,0.00
2023-02-07T00:32:44.506Z,0.00
2023-02-07T00:33:44.470Z,0.00
2023-02-07T00:34:44.398Z,0.00
2023-02-07T00:35:44.350Z,0.00
2023-02-07T00:36:44.302Z,0.00
2023-02-07T00:37:44.259Z,0.00
2023-02-07T00:38:44.224Z,0.00
2023-02-07T00:39:44.171Z,0.00
2023-02-07T00:40:44.124Z,0.00
2023-02-07T00:41:44.073Z,0.00
2023-02-07T00:42:44.025Z,0.00
2023-02-07T00:43:43.970Z,0.00
2023-02-07T00:44:43.929Z,0.00
2023-02-07T00:45:43.909Z,0.00
2023-02-07T00:46:43.842Z,0.00
2023-02-07T00:47:43.778Z,0.00
2023-02-07T00:48:43.737Z,0.00
2023-02-07T00:49:43.685Z,0.00
2023-02-07T00:50:43.644Z,0.00
2023-02-07T00:51:43.600Z,0.00
2023-02-07T00:52:43.543Z,0.00
2023-02-07T00:53:43.497Z,0.00
2023-02-07T00:54:43.449Z,0.00
2023-02-07T00:55:43.400Z,0.00
2023-02-07T00:56:43.352Z,0.00
2023-02-07T00:57:43.316Z,0.00
2023-02-07T00:58:43.259Z,0.00
2023-02-07T00:59:43.208Z,0.00
2023-02-07T01:00:43.181Z,0.00
2023-02-07T01:01:43.121Z,0.00
2023-02-07T01:02:43.069Z,0.00
2023-02-07T01:03:43.029Z,0.00
2023-02-07T01:04:43.010Z,0.00
2023-02-07T01:05:42.926Z,0.00
2023-02-07T01:06:42.888Z,0.00
2023-02-07T01:07:42.835Z,0.00
2023-02-07T01:08:42.801Z,0.00
2023-02-07T01:09:42.733Z,0.00
2023-02-07T01:10:42.700Z,0.00
2023-02-07T01:11:42.644Z,0.00
2023-02-07T01:12:42.598Z,0.00
2023-02-07T01:13:42.546Z,0.00
2023-02-07T01:14:42.510Z,0.00
2023-02-07T01:15:42.472Z,0.00
2023-02-07T01:16:42.402Z,0.00
2023-02-07T01:17:42.357Z,0.00
2023-02-07T01:18:42.310Z,0.00
2023-02-07T01:19:42.273Z,0.00
2023-02-07T01:20:42.246Z,0.00
2023-02-07T01:21:42.167Z,0.00
2023-02-07T01:22:42.121Z,0.00
2023-02-07T01:23:42.082Z,0.00
2023-02-07T01:24:42.027Z,0.00
2023-02-07T01:25:41.977Z,0.00
2023-02-07T01:26:41.939Z,0.00
2023-02-07T01:27:41.889Z,0.00
2023-02-07T01:28:41.842Z,0.00
2023-02-07T01:29:41.796Z,0.00
2023-02-07T01:30:41.793Z,0.00
2023-02-07T01:31:41.785Z,0.00
2023-02-07T01:32:41.647Z,0.00
2023-02-07T01:33:41.594Z,0.00
2023-02-07T01:34:41.555Z,0.00
2023-02-07T01:35:41.508Z,0.00
2023-02-07T01:36:41.470Z,0.00
2023-02-07T01:37:41.401Z,0.00
2023-02-07T01:38:41.356Z,0.00
2023-02-07T01:39:41.307Z,0.00
2023-02-07T01:40:41.255Z,0.00
2023-02-07T01:41:41.218Z,0.00
2023-02-07T01:42:41.166Z,0.00
2023-02-07T01:43:41.112Z,0.00
2023-02-07T01:44:41.067Z,0.00
2023-02-07T01:45:41.283Z,0.00
2023-02-07T01:46:40.972Z,0.00
2023-02-07T01:47:40.932Z,0.00
2023-02-07T01:48:40.874Z,0.00
2023-02-07T01:49:40.823Z,0.00
2023-02-07T01:50:40.786Z,0.00
2023-02-07T01:51:40.729Z,0.00
2023-02-07T01:52:40.683Z,0.00
2023-02-07T01:53:40.658Z,0.00
2023-02-07T01:54:40.593Z,0.00
2023-02-07T01:55:40.779Z,0.00
2023-02-07T01:56:40.497Z,0.00
2023-02-07T01:57:40.445Z,0.00
2023-02-07T01:58:40.398Z,0.00
2023-02-07T01:59:40.359Z,0.00
2023-02-07T02:00:40.306Z,0.00
2023-02-07T02:01:40.285Z,0.00
2023-02-07T02:02:40.243Z,0.00
2023-02-07T02:03:40.158Z,0.00
2023-02-07T02:04:40.116Z,0.00
2023-02-07T02:05:40.168Z,0.00
2023-02-07T02:06:40.018Z,0.00
2023-02-07T02:07:39.961Z,0.00
2023-02-07T02:08:39.919Z,0.00
2023-02-07T02:09:39.870Z,0.00
2023-02-07T02:10:39.822Z,0.00
2023-02-07T02:11:39.787Z,0.00
2023-02-07T02:12:39.730Z,0.00
2023-02-07T02:13:39.683Z,0.00
2023-02-07T02:14:39.635Z,0.00
2023-02-07T02:15:39.929Z,0.00
2023-02-07T02:16:39.539Z,0.00
2023-02-07T02:17:39.488Z,0.00
2023-02-07T02:18:39.446Z,0.00
2023-02-07T02:19:39.398Z,0.00
2023-02-07T02:20:39.363Z,0.00
2023-02-07T02:21:39.341Z,0.00
2023-02-07T02:22:39.252Z,0.00
2023-02-07T02:23:39.201Z,0.00
2023-02-07T02:24:39.162Z,0.00
2023-02-07T02:25:39.339Z,0.00
2023-02-07T02:26:39.060Z,0.00
2023-02-07T02:27:39.019Z,0.00
2023-02-07T02:28:38.971Z,0.00
2023-02-07T02:29:38.917Z,0.00
2023-02-07T02:30:38.899Z,0.00
2023-02-07T02:31:38.887Z,0.00
2023-02-07T02:32:38.788Z,0.00
2023-02-07T02:33:38.724Z,0.00
2023-02-07T02:34:38.687Z,0.00
2023-02-07T02:35:38.980Z,0.00
2023-02-07T02:36:38.592Z,0.00
2023-02-07T02:37:38.534Z,0.00
2023-02-07T02:38:38.496Z,0.00
2023-02-07T02:39:38.439Z,0.00
2023-02-07T02:40:38.390Z,0.00
2023-02-07T02:41:38.360Z,0.00
2023-02-07T02:42:38.294Z,0.00
2023-02-07T02:43:38.265Z,0.00
2023-02-07T02:44:38.201Z,0.00
2023-02-07T02:45:38.534Z,0.00
2023-02-07T02:46:38.113Z,0.00
2023-02-07T02:47:38.064Z,0.00
2023-02-07T02:48:38.044Z,0.00
2023-02-07T02:49:37.959Z,0.00
2023-02-07T02:50:37.914Z,0.00
2023-02-07T02:51:37.867Z,0.00
2023-02-07T02:52:50.192Z,0.00
2023-02-07T02:53:37.794Z,0.00
2023-02-07T02:54:37.735Z,0.00
2023-02-07T02:55:38.017Z,0.00
2023-02-07T02:56:37.625Z,0.00
2023-02-07T02:57:37.591Z,0.00
2023-02-07T02:58:37.532Z,0.00
2023-02-07T02:59:37.501Z,0.00
2023-02-07T03:00:37.438Z,0.00
2023-02-07T03:01:37.404Z,0.00
2023-02-07T03:02:37.340Z,0.00
2023-02-07T03:03:37.293Z,0.00
2023-02-07T03:04:37.249Z,0.00
2023-02-07T03:05:37.525Z,0.00
2023-02-07T03:06:37.149Z,0.00
2023-02-07T03:07:37.105Z,0.00
2023-02-07T03:08:38.768Z,0.00
2023-02-07T03:09:37.012Z,0.00
2023-02-07T03:10:36.957Z,0.00
2023-02-07T03:11:36.926Z,0.00
2023-02-07T03:12:36.862Z,0.00
2023-02-07T03:13:36.819Z,0.00
2023-02-07T03:14:36.766Z,0.00
2023-02-07T03:15:37.086Z,0.00
2023-02-07T03:16:36.689Z,0.00
2023-02-07T03:17:36.627Z,0.00
2023-02-07T03:18:36.575Z,0.00
2023-02-07T03:19:36.529Z,0.00
2023-02-07T03:20:36.477Z,0.00
2023-02-07T03:21:36.433Z,0.00
2023-02-07T03:22:36.391Z,0.00
2023-02-07T03:23:36.335Z,0.00
2023-02-07T03:24:36.287Z,0.00
2023-02-07T03:25:36.636Z,0.00
2023-02-07T03:26:36.190Z,0.00
2023-02-07T03:27:36.140Z,0.00
2023-02-07T03:28:36.103Z,0.00
2023-02-07T03:29:36.044Z,0.00
2023-02-07T03:30:35.999Z,0.00
2023-02-07T03:31:35.988Z,0.00
2023-02-07T03:32:35.898Z,0.00
2023-02-07T03:33:35.855Z,0.00
2023-02-07T03:34:35.812Z,0.00
2023-02-07T03:35:35.985Z,0.00
2023-02-07T03:36:35.706Z,0.00
2023-02-07T03:37:35.659Z,0.00
2023-02-07T03:38:35.621Z,0.00
2023-02-07T03:39:35.576Z,0.00
2023-02-07T03:40:35.513Z,0.00
2023-02-07T03:41:35.485Z,0.00
2023-02-07T03:42:35.432Z,0.00
2023-02-07T03:43:35.374Z,0.00
2023-02-07T03:44:35.335Z,0.00
2023-02-07T03:45:35.336Z,0.00
2023-02-07T03:46:35.238Z,0.00
2023-02-07T03:47:35.180Z,0.00
2023-02-07T03:48:35.130Z,0.00
2023-02-07T03:49:35.084Z,0.00
2023-02-07T03:50:35.047Z,0.00
2023-02-07T03:51:34.986Z,0.00
2023-02-07T03:52:34.943Z,0.00
2023-02-07T03:53:34.898Z,0.00
2023-02-07T03:54:34.843Z,0.00
2023-02-07T03:55:34.806Z,0.00
2023-02-07T03:56:34.747Z,0.00
2023-02-07T03:57:34.702Z,0.00
2023-02-07T03:58:34.651Z,0.00
2023-02-07T03:59:34.606Z,0.00
2023-02-07T04:00:34.555Z,0.00
2023-02-07T04:01:34.524Z,0.00
2023-02-07T04:02:34.462Z,0.00
2023-02-07T04:03:34.420Z,0.00
2023-02-07T04:04:34.364Z,0.00
2023-02-07T04:05:34.322Z,0.00
2023-02-07T04:06:34.268Z,0.00
2023-02-07T04:07:34.232Z,0.00
2023-02-07T04:08:34.172Z,0.00
2023-02-07T04:09:34.128Z,0.00
2023-02-07T04:10:34.080Z,0.00
2023-02-07T04:11:34.031Z,0.00
2023-02-07T04:12:34.004Z,0.00
2023-02-07T04:13:33.945Z,0.00
2023-02-07T04:14:33.890Z,0.00
2023-02-07T04:15:33.849Z,0.00
2023-02-07T04:16:33.867Z,0.00
2023-02-07T04:17:33.747Z,0.00
2023-02-07T04:18:33.697Z,0.00
2023-02-07T04:19:33.660Z,0.00
2023-02-07T04:20:33.600Z,0.00
2023-02-07T04:21:33.549Z,0.00
2023-02-07T04:22:33.504Z,0.00
2023-02-07T04:23:33.459Z,0.00
2023-02-07T04:24:33.415Z,0.00
2023-02-07T04:25:33.359Z,0.00
2023-02-07T04:26:33.309Z,0.00
2023-02-07T04:27:33.272Z,0.00
2023-02-07T04:28:33.214Z,0.00
2023-02-07T04:29:33.165Z,0.00
2023-02-07T04:30:33.147Z,0.00
2023-02-07T04:31:33.115Z,0.00
2023-02-07T04:32:33.020Z,0.00
2023-02-07T04:33:32.984Z,0.00
2023-02-07T04:34:32.924Z,0.00
2023-02-07T04:35:32.881Z,0.00
2023-02-07T04:36:32.846Z,0.00
2023-02-07T04:37:32.780Z,0.00
2023-02-07T04:38:32.727Z,0.00
2023-02-07T04:39:32.683Z,0.00
2023-02-07T04:40:32.637Z,0.00
2023-02-07T04:41:32.595Z,0.00
2023-02-07T04:42:32.544Z,0.00
2023-02-07T04:43:32.490Z,0.00
2023-02-07T04:44:32.438Z,0.00
2023-02-07T04:45:32.408Z,0.00
2023-02-07T04:46:32.356Z,0.00
2023-02-07T04:47:32.296Z,0.00
2023-02-07T04:48:32.246Z,0.00
2023-02-07T04:49:34.230Z,0.00
2023-02-07T04:50:32.151Z,0.00
2023-02-07T04:51:32.114Z,0.00
2023-02-07T04:52:32.062Z,0.00
2023-02-07T04:53:32.049Z,0.00
2023-02-07T04:54:31.979Z,0.00
2023-02-07T04:55:31.913Z,0.00
2023-02-07T04:56:31.864Z,0.00
2023-02-07T04:57:31.832Z,0.00
2023-02-07T04:58:31.773Z,0.00
2023-02-07T04:59:31.720Z,0.00
2023-02-07T05:00:31.697Z,0.00
2023-02-07T05:01:31.633Z,0.00
2023-02-07T05:02:31.601Z,0.00
2023-02-07T05:03:31.549Z,0.00
2023-02-07T05:04:31.489Z,0.00
2023-02-07T05:05:31.444Z,0.00
2023-02-07T05:06:31.387Z,0.00
2023-02-07T05:07:31.340Z,0.00
2023-02-07T05:08:31.306Z,0.00
2023-02-07T05:09:31.248Z,0.00
2023-02-07T05:10:31.197Z,0.00
2023-02-07T05:11:31.157Z,0.00
2023-02-07T05:12:31.106Z,0.00
2023-02-07T05:13:31.060Z,0.00
2023-02-07T05:14:31.016Z,0.00
2023-02-07T05:15:30.958Z,0.00
2023-02-07T05:16:30.936Z,0.00
2023-02-07T05:17:30.863Z,0.00
2023-02-07T05:18:30.831Z,0.00
2023-02-07T05:19:30.766Z,0.00
2023-02-07T05:20:30.743Z,0.00
2023-02-07T05:21:30.675Z,0.00
2023-02-07T05:22:30.624Z,0.00
2023-02-07T05:23:30.578Z,0.00
2023-02-07T05:24:30.529Z,0.00
2023-02-07T05:25:30.487Z,0.00
2023-02-07T05:26:30.442Z,0.00
2023-02-07T05:27:30.384Z,0.00
2023-02-07T05:28:30.337Z,0.00
2023-02-07T05:29:30.293Z,0.00
2023-02-07T05:30:30.360Z,0.00
2023-02-07T05:31:30.263Z,0.00
2023-02-07T05:32:30.162Z,0.00
2023-02-07T05:33:30.668Z,0.00
2023-02-07T05:34:30.049Z,0.00
2023-02-07T05:35:30.004Z,0.00
2023-02-07T05:36:29.951Z,0.00
2023-02-07T05:37:29.908Z,0.00
2023-02-07T05:38:29.872Z,0.00
2023-02-07T05:39:29.810Z,0.00
2023-02-07T05:40:29.758Z,0.00
2023-02-07T05:41:29.715Z,0.00
2023-02-07T05:42:29.670Z,0.00
2023-02-07T05:43:29.619Z,0.00
2023-02-07T05:44:29.583Z,0.00
2023-02-07T05:45:29.523Z,0.00
2023-02-07T05:46:29.474Z,0.00
2023-02-07T05:47:29.429Z,0.00
2023-02-07T05:48:29.382Z,0.00
2023-02-07T05:49:29.336Z,0.00
2023-02-07T05:50:29.295Z,0.00
2023-02-07T05:51:29.255Z,0.00
2023-02-07T05:52:29.185Z,0.00
2023-02-07T05:53:29.140Z,0.00
2023-02-07T05:54:29.095Z,0.00
2023-02-07T05:55:29.045Z,0.00
2023-02-07T05:56:28.997Z,0.00
2023-02-07T05:57:28.962Z,0.00
2023-02-07T05:58:28.904Z,0.00
2023-02-07T05:59:28.856Z,0.00
2023-02-07T06:00:28.801Z,0.00
2023-02-07T06:01:28.760Z,0.00
2023-02-07T06:02:28.729Z,0.00
2023-02-07T06:03:28.693Z,0.00
2023-02-07T06:04:28.611Z,0.00
2023-02-07T06:05:28.571Z,0.00
2023-02-07T06:06:28.521Z,0.00
2023-02-07T06:07:28.470Z,0.00
2023-02-07T06:08:28.418Z,0.00
2023-02-07T06:09:28.390Z,0.00
2023-02-07T06:10:28.323Z,0.00
2023-02-07T06:11:28.280Z,0.00
2023-02-07T06:12:28.228Z,0.00
2023-02-07T06:13:28.181Z,0.00
2023-02-07T06:14:28.137Z,0.00
2023-02-07T06:15:28.111Z,0.00
2023-02-07T06:16:28.036Z,0.00
2023-02-07T06:17:27.999Z,0.00
2023-02-07T06:18:27.942Z,0.00
2023-02-07T06:19:27.896Z,0.00
2023-02-07T06:20:27.855Z,0.00
2023-02-07T06:21:37.644Z,0.00
2023-02-07T06:22:27.756Z,0.00
2023-02-07T06:23:27.715Z,0.00
2023-02-07T06:24:27.659Z,0.00
2023-02-07T06:25:27.611Z,0.00
2023-02-07T06:26:27.625Z,0.00
2023-02-07T06:27:27.544Z,0.00
2023-02-07T06:28:27.459Z,0.00
2023-02-07T06:29:27.424Z,0.00
2023-02-07T06:30:27.376Z,0.00
2023-02-07T06:31:27.352Z,0.00
2023-02-07T06:32:27.278Z,0.00
2023-02-07T06:33:27.246Z,0.00
2023-02-07T06:34:27.186Z,0.00
2023-02-07T06:35:27.135Z,0.00
2023-02-07T06:36:27.099Z,0.00
2023-02-07T06:37:27.039Z,0.00
2023-02-07T06:38:26.989Z,0.00
2023-02-07T06:39:26.960Z,0.00
2023-02-07T06:40:26.895Z,0.00
2023-02-07T06:41:26.852Z,0.00
2023-02-07T06:42:26.804Z,0.00
2023-02-07T06:43:26.753Z,0.00
2023-02-07T06:44:26.705Z,0.00
2023-02-07T06:45:26.672Z,0.00
2023-02-07T06:46:26.708Z,0.00
2023-02-07T06:47:26.569Z,0.00
2023-02-07T06:48:26.532Z,5.63
2023-02-07T06:49:26.469Z,5.63
2023-02-07T06:50:26.420Z,5.63
2023-02-07T06:51:26.381Z,5.63
2023-02-07T06:52:26.327Z,5.63
2023-02-07T06:53:26.276Z,5.63
2023-02-07T06:54:26.235Z,5.63
2023-02-07T06:55:26.175Z,11.25
2023-02-07T06:56:26.261Z,11.25
2023-02-07T06:57:26.091Z,11.25
2023-02-07T06:58:26.035Z,11.25
2023-02-07T06:59:25.985Z,11.25
2023-02-07T07:00:25.960Z,16.88
2023-02-07T07:01:25.919Z,16.88
2023-02-07T07:02:25.866Z,16.88
2023-02-07T07:03:25.805Z,16.88
2023-02-07T07:04:25.752Z,22.50
2023-02-07T07:05:25.713Z,22.50
2023-02-07T07:06:25.662Z,22.50
2023-02-07T07:07:25.613Z,22.50
2023-02-07T07:08:25.561Z,28.13
2023-02-07T07:09:25.523Z,28.13
2023-02-07T07:10:25.517Z,28.13
2023-02-07T07:11:25.417Z,33.75
2023-02-07T07:12:25.376Z,33.75
2023-02-07T07:13:25.319Z,33.75
2023-02-07T07:14:25.277Z,33.75
2023-02-07T07:15:25.242Z,39.38
2023-02-07T07:16:25.239Z,39.38
2023-02-07T07:17:25.133Z,39.38
2023-02-07T07:18:25.101Z,45.00
2023-02-07T07:19:25.038Z,45.00
2023-02-07T07:20:25.002Z,45.00
2023-02-07T07:21:24.939Z,50.63
2023-02-07T07:22:24.901Z,50.63
2023-02-07T07:23:24.846Z,50.63
2023-02-07T07:24:24.795Z,56.25
2023-02-07T07:25:24.748Z,56.25
2023-02-07T07:26:24.713Z,56.25
2023-02-07T07:27:24.655Z,56.25
2023-02-07T07:28:24.610Z,61.88
2023-02-07T07:29:24.556Z,61.88
2023-02-07T07:30:24.515Z,61.88
2023-02-07T07:31:24.485Z,67.50
2023-02-07T07:33:24.367Z,67.50
2023-02-07T07:34:24.322Z,73.13
2023-02-07T07:35:24.271Z,73.13
2023-02-07T07:36:24.228Z,73.13
2023-02-07T07:37:24.186Z,78.75
2023-02-07T07:38:24.138Z,78.75
2023-02-07T07:39:24.086Z,84.38
2023-02-07T07:40:24.032Z,84.38
2023-02-07T07:41:23.982Z,90.00
2023-02-07T07:42:23.939Z,101.25
2023-02-07T07:43:23.882Z,135.00
2023-02-07T07:44:23.840Z,191.25
2023-02-07T07:45:23.804Z,241.88
2023-02-07T07:46:23.752Z,298.13
2023-02-07T07:47:23.692Z,331.88
2023-02-07T07:48:23.685Z,343.13
2023-02-07T07:49:23.601Z,348.75
2023-02-07T07:50:23.558Z,320.63
2023-02-07T07:51:23.536Z,331.88
2023-02-07T07:52:23.459Z,331.88
2023-02-07T07:53:23.433Z,343.13
2023-02-07T07:54:23.363Z,354.38
2023-02-07T07:55:23.323Z,360.00
2023-02-07T07:56:23.272Z,371.25
2023-02-07T07:57:23.237Z,382.50
2023-02-07T07:58:23.176Z,388.13
2023-02-07T07:59:24.293Z,393.75
2023-02-07T08:00:23.090Z,393.75
2023-02-07T08:01:23.039Z,405.00
2023-02-07T08:02:22.996Z,410.63
2023-02-07T08:03:22.967Z,421.88
2023-02-07T08:04:22.909Z,433.13
2023-02-07T08:05:22.869Z,450.00
2023-02-07T08:06:22.814Z,455.63
2023-02-07T08:07:22.766Z,472.50
2023-02-07T08:08:22.750Z,478.13
2023-02-07T08:09:22.686Z,489.38
2023-02-07T08:10:22.651Z,506.25
2023-02-07T08:11:22.591Z,523.13
2023-02-07T08:12:22.549Z,534.38
2023-02-07T08:13:22.642Z,551.25
2023-02-07T08:14:22.464Z,562.50
2023-02-07T08:15:22.416Z,579.38
2023-02-07T09:09:54.231Z,1305.00
2023-02-07T09:09:54.659Z,1305.00
2023-02-07T09:10:54.601Z,1299.38
2023-02-07T09:11:54.525Z,1288.13
2023-02-07T09:12:54.488Z,1271.25
2023-02-07T09:13:54.449Z,1254.38
2023-02-07T09:14:54.432Z,1237.50
2023-02-07T09:15:54.372Z,1226.25
2023-02-07T09:16:54.413Z,1220.63
2023-02-07T09:17:54.303Z,1215.00
2023-02-07T09:18:54.268Z,1215.00
2023-02-07T09:19:54.221Z,1220.63
2023-02-07T09:20:54.201Z,1220.63
2023-02-07T09:21:54.162Z,1215.00
2023-02-07T09:22:54.120Z,1209.38
2023-02-07T09:23:54.076Z,1215.00
2023-02-07T09:24:54.035Z,1215.00
2023-02-07T09:25:54.005Z,1220.63
2023-02-07T09:26:53.960Z,1209.38
2023-02-07T09:27:53.943Z,1215.00
2023-02-07T09:28:53.907Z,1215.00
2023-02-07T09:29:53.853Z,1220.63
2023-02-07T09:30:54.134Z,1226.25
2023-02-07T09:31:53.868Z,1220.63
2023-02-07T09:32:53.739Z,1220.63
2023-02-07T09:33:53.699Z,1237.50
2023-02-07T09:34:53.681Z,1237.50
2023-02-07T09:35:53.628Z,1254.38
2023-02-07T09:36:53.599Z,1254.38
2023-02-07T09:37:53.553Z,1254.38
2023-02-07T09:38:53.518Z,1265.63
2023-02-07T09:39:53.483Z,1265.63
2023-02-07T09:40:53.459Z,1271.25
2023-02-07T09:41:53.411Z,1265.63
2023-02-07T09:42:53.432Z,1271.25
2023-02-07T09:43:53.457Z,1271.25
2023-02-07T09:44:53.568Z,1276.88
2023-02-07T09:45:53.259Z,1276.88
2023-02-07T09:46:53.244Z,1282.50
2023-02-07T09:47:53.187Z,1288.13
2023-02-07T09:48:53.156Z,1288.13
2023-02-07T09:49:53.111Z,1276.88
2023-02-07T09:50:53.076Z,1231.88
2023-02-07T09:51:53.039Z,1198.13
2023-02-07T09:52:53.016Z,1186.88
2023-02-07T09:53:52.965Z,1198.13
2023-02-07T09:54:52.929Z,1186.88
2023-02-07T09:55:52.894Z,1181.25
2023-02-07T09:56:52.860Z,1164.38
2023-02-07T09:57:52.831Z,1153.13
2023-02-07T09:58:52.812Z,1153.13
2023-02-07T09:59:52.755Z,1164.38
2023-02-07T10:00:52.707Z,1164.38
2023-02-07T10:01:52.667Z,1164.38
2023-02-07T10:02:52.702Z,1158.75
2023-02-07T10:03:52.600Z,1170.00
2023-02-07T10:04:52.555Z,1175.63
2023-02-07T10:05:52.515Z,1181.25
2023-02-07T10:06:52.483Z,1175.63
2023-02-07T10:07:52.449Z,1175.63
2023-02-07T10:08:52.409Z,1181.25
2023-02-07T10:09:52.377Z,1175.63
2023-02-07T10:10:52.328Z,1153.13
2023-02-07T10:11:52.331Z,1153.13
2023-02-07T10:12:52.251Z,1130.63
2023-02-07T10:13:52.214Z,1057.50
2023-02-07T10:14:52.188Z,1119.38
2023-02-07T10:15:52.165Z,956.25
2023-02-07T10:16:52.102Z,978.75
2023-02-07T10:17:52.073Z,950.63
2023-02-07T10:18:52.026Z,916.88
2023-02-07T10:19:51.988Z,967.50
2023-02-07T10:20:51.990Z,956.25
2023-02-07T10:21:51.914Z,1035.00
2023-02-07T10:22:51.901Z,1029.38
2023-02-07T10:23:51.837Z,1046.25
2023-02-07T10:24:51.800Z,984.38
2023-02-07T10:25:51.787Z,1040.63
2023-02-07T10:26:51.734Z,888.75
2023-02-07T10:27:51.718Z,961.88
2023-02-07T10:28:51.644Z,871.88
2023-02-07T10:29:51.612Z,916.88
2023-02-07T10:30:51.665Z,900.00
2023-02-07T10:31:51.572Z,990.00
2023-02-07T10:32:51.493Z,1046.25
2023-02-07T10:33:51.464Z,978.75
2023-02-07T10:34:52.422Z,1051.88
2023-02-07T10:35:51.379Z,1108.13
2023-02-07T10:36:51.347Z,1108.13
2023-02-07T10:37:51.302Z,1113.75
2023-02-07T10:38:56.872Z,1102.50
2023-02-07T10:39:51.253Z,1091.25
2023-02-07T10:40:51.189Z,1080.00
2023-02-07T10:41:51.199Z,1113.75
2023-02-07T10:42:51.146Z,1096.88
2023-02-07T10:43:51.078Z,1153.13
2023-02-07T10:44:51.031Z,1153.13
2023-02-07T10:45:57.043Z,1158.75
2023-02-07T10:46:50.999Z,1164.38
2023-02-07T10:47:50.921Z,1170.00
2023-02-07T10:48:50.883Z,1175.63
2023-02-07T10:49:50.844Z,1186.88
2023-02-07T10:50:50.815Z,1192.50
2023-02-07T10:51:50.767Z,1198.13
2023-02-07T10:52:50.729Z,1203.75
2023-02-07T10:53:55.292Z,1215.00
2023-02-07T10:54:50.662Z,1220.63
2023-02-07T10:55:50.620Z,1237.50
2023-02-07T10:56:50.594Z,1243.13
2023-02-07T10:57:54.259Z,1248.75
2023-02-07T10:58:50.506Z,1260.00
2023-02-07T10:59:50.480Z,1260.00
2023-02-07T11:00:50.424Z,1271.25
2023-02-07T11:01:50.442Z,1288.13
2023-02-07T11:02:50.372Z,1288.13
2023-02-07T11:03:50.310Z,1299.38
2023-02-07T11:04:50.278Z,1316.25
2023-02-07T11:05:50.234Z,1310.63
2023-02-07T11:06:50.199Z,1327.50
2023-02-07T11:07:50.179Z,1327.50
2023-02-07T11:08:50.135Z,1327.50
2023-02-07T11:09:50.083Z,1350.00
2023-02-07T11:10:50.052Z,1350.00
2023-02-07T11:11:50.009Z,1355.63
2023-02-07T11:12:49.995Z,1366.88
2023-02-07T11:13:49.950Z,1344.38
2023-02-07T11:14:53.253Z,1299.38
2023-02-07T11:15:49.886Z,1338.75
2023-02-07T11:16:49.826Z,1355.63
2023-02-07T11:17:49.864Z,1344.38
2023-02-07T11:18:58.442Z,1203.75
2023-02-07T11:19:49.710Z,1327.50
2023-02-07T11:20:49.675Z,1243.13
2023-02-07T11:21:49.632Z,1192.50
2023-02-07T11:22:49.596Z,1113.75
2023-02-07T11:23:49.559Z,1316.25
2023-02-07T11:24:49.534Z,1327.50
2023-02-07T11:25:49.479Z,1327.50
2023-02-07T11:26:49.446Z,1333.13
2023-02-07T11:27:49.430Z,1316.25
2023-02-07T11:28:49.370Z,1305.00
2023-02-07T11:29:49.327Z,1310.63
2023-02-07T11:30:49.364Z,1299.38
2023-02-07T11:31:49.335Z,1175.63
2023-02-07T11:32:49.214Z,1220.63
2023-02-07T11:33:49.180Z,1136.25
2023-02-07T11:34:49.157Z,1175.63
2023-02-07T11:35:49.118Z,1226.25
2023-02-07T11:36:49.061Z,1237.50
2023-02-07T11:37:49.022Z,1192.50
2023-02-07T11:38:48.991Z,1293.75
2023-02-07T11:39:48.943Z,1288.13
2023-02-07T11:40:48.910Z,1282.50
2023-02-07T11:41:48.881Z,1288.13
2023-02-07T11:42:48.851Z,1271.25
2023-02-07T11:43:48.796Z,1265.63
2023-02-07T11:44:48.758Z,1260.00
2023-02-07T11:45:48.720Z,1271.25
2023-02-07T11:46:48.711Z,1248.75
2023-02-07T11:47:48.666Z,1243.13
2023-02-07T11:48:48.617Z,1243.13
2023-02-07T11:49:48.572Z,1220.63
2023-02-07T11:50:48.527Z,1125.00
2023-02-07T11:51:48.491Z,1102.50
2023-02-07T11:52:48.849Z,1141.88
2023-02-07T11:53:48.413Z,1181.25
2023-02-07T11:54:48.379Z,1192.50
2023-02-07T11:55:48.350Z,1192.50
2023-02-07T11:56:48.301Z,1198.13
2023-02-07T11:57:48.262Z,1175.63
2023-02-07T11:58:48.239Z,1175.63
2023-02-07T11:59:48.189Z,1181.25
2023-02-07T12:00:48.149Z,1181.25
2023-02-07T12:01:48.135Z,1181.25
2023-02-07T12:02:48.092Z,1170.00
2023-02-07T12:03:48.050Z,1153.13
2023-02-07T12:04:48.024Z,1141.88
2023-02-07T12:05:47.984Z,1119.38
2023-02-07T12:06:47.927Z,1108.13
2023-02-07T12:07:47.888Z,1068.75
2023-02-07T12:08:47.850Z,995.63
2023-02-07T12:09:47.808Z,894.38
2023-02-07T12:10:47.771Z,905.63
2023-02-07T12:11:47.752Z,900.00
2023-02-07T12:12:47.697Z,945.00
2023-02-07T12:13:47.660Z,1018.13
2023-02-07T12:14:47.614Z,1046.25
2023-02-07T12:15:47.578Z,995.63
2023-02-07T12:16:47.550Z,961.88
2023-02-07T12:17:47.511Z,945.00
2023-02-07T12:18:47.467Z,1046.25
2023-02-07T12:19:47.427Z,1068.75
2023-02-07T12:20:47.393Z,1046.25
2023-02-07T12:21:47.353Z,1068.75
2023-02-07T12:22:58.719Z,1068.75
2023-02-07T12:23:47.272Z,1063.13
2023-02-07T12:24:47.229Z,1057.50
2023-02-07T12:25:47.197Z,1051.88
2023-02-07T12:26:47.186Z,1046.25
2023-02-07T12:27:47.145Z,1046.25
2023-02-07T12:28:47.084Z,1035.00
2023-02-07T12:29:47.049Z,1029.38
2023-02-07T12:30:47.045Z,1029.38
2023-02-07T12:31:47.026Z,1018.13
2023-02-07T12:32:47.032Z,1012.50
2023-02-07T12:33:46.882Z,1018.13
2023-02-07T12:34:46.841Z,1012.50
2023-02-07T12:35:56.846Z,1001.25
2023-02-07T12:36:46.771Z,995.63
2023-02-07T12:37:46.732Z,990.00
2023-02-07T12:38:46.697Z,990.00
2023-02-07T12:39:46.650Z,978.75
2023-02-07T12:40:46.620Z,978.75
2023-02-07T12:41:46.574Z,973.13
2023-02-07T12:42:46.552Z,973.13
2023-02-07T12:43:46.516Z,967.50
2023-02-07T12:44:46.458Z,967.50
2023-02-07T12:45:46.473Z,956.25
2023-02-07T12:46:46.381Z,950.63
2023-02-07T12:47:46.341Z,939.38
2023-02-07T12:48:46.325Z,900.00
2023-02-07T12:49:46.281Z,798.75
2023-02-07T12:50:46.225Z,753.75
2023-02-07T12:51:46.191Z,855.00
2023-02-07T12:52:46.144Z,900.00
2023-02-07T12:53:46.120Z,911.25
2023-02-07T12:54:46.075Z,911.25
2023-02-07T12:55:46.038Z,911.25
2023-02-07T12:56:45.987Z,905.63
2023-02-07T12:57:45.951Z,905.63
2023-02-07T12:58:45.912Z,900.00
2023-02-07T12:59:45.872Z,900.00
2023-02-07T13:00:45.971Z,894.38
2023-02-07T13:01:45.794Z,894.38
2023-02-07T13:02:45.750Z,883.13
2023-02-07T13:03:45.718Z,877.50
2023-02-07T13:04:45.674Z,871.88
2023-02-07T13:05:45.633Z,860.63
2023-02-07T13:06:45.602Z,855.00
2023-02-07T13:07:45.558Z,781.88
2023-02-07T13:08:45.519Z,495.00
2023-02-07T13:09:45.509Z,236.25
2023-02-07T13:10:45.437Z,196.88
2023-02-07T13:11:45.398Z,191.25
2023-02-07T13:12:45.367Z,191.25
2023-02-07T13:13:45.319Z,191.25
2023-02-07T13:14:45.278Z,191.25
2023-02-07T13:15:45.244Z,191.25
2023-02-07T13:16:45.276Z,191.25
2023-02-07T13:17:45.157Z,185.63
2023-02-07T13:18:45.128Z,185.63
2023-02-07T13:19:45.080Z,185.63
2023-02-07T13:20:45.038Z,185.63
2023-02-07T13:21:45.002Z,185.63
2023-02-07T13:22:44.956Z,185.63
2023-02-07T13:23:44.920Z,185.63
2023-02-07T13:24:44.888Z,180.00
2023-02-07T13:25:44.836Z,180.00
2023-02-07T13:26:44.807Z,180.00
2023-02-07T13:27:44.809Z,180.00
2023-02-07T13:28:44.705Z,180.00
2023-02-07T13:29:44.675Z,180.00
2023-02-07T13:30:44.656Z,174.38
2023-02-07T13:31:44.662Z,174.38
2023-02-07T13:32:44.563Z,174.38
2023-02-07T13:33:44.496Z,174.38
2023-02-07T13:34:44.454Z,174.38
2023-02-07T13:35:44.419Z,174.38
2023-02-07T13:36:44.373Z,174.38
2023-02-07T13:37:44.341Z,168.75
2023-02-07T13:38:44.290Z,168.75
2023-02-07T13:39:44.249Z,168.75
2023-02-07T13:40:44.220Z,168.75
2023-02-07T13:41:44.162Z,168.75
2023-02-07T13:42:44.122Z,168.75
2023-02-07T13:43:44.086Z,168.75